Time;durP1;ratioP1;P1;durP2;ratioP2;P2;SDS_P1;SDS_P2;PMS_P1;PMS_P2;Temp;Humidity;BMP_temperature;BMP_pressure;BME280_temperature;BME280_humidity;BME280_pressure;Samples;Min_cycle;Max_cycle;Signal;HPM_P1;HPM_P2
2021/10/25 00:00:50;;;;;;;8.27;7.00;;;7.40;99.90;;;;;;5013734;28;20177;-85
2021/10/25 00:03:15;;;;;;;8.27;6.67;;;7.40;99.90;;;;;;5017141;28;20264;-85
2021/10/25 00:05:41;;;;;;;10.30;7.50;;;7.30;99.90;;;;;;5018842;28;20203;-84
2021/10/25 00:08:06;;;;;;;8.60;6.80;;;7.30;99.90;;;;;;5018837;28;20189;-85
2021/10/25 00:10:33;;;;;;;10.23;7.23;;;7.30;99.90;;;;;;5012646;28;20185;-85
2021/10/25 00:12:59;;;;;;;10.00;6.90;;;7.20;99.90;;;;;;5014760;28;20181;-85
2021/10/25 00:15:25;;;;;;;12.30;6.90;;;7.20;99.90;;;;;;5016110;28;20459;-85
2021/10/25 00:17:51;;;;;;;9.90;6.80;;;7.20;99.90;;;;;;5018828;28;20412;-85
2021/10/25 00:20:17;;;;;;;9.93;7.17;;;7.20;99.90;;;;;;5016317;28;20652;-85
2021/10/25 00:22:42;;;;;;;12.93;7.90;;;7.10;99.90;;;;;;5017681;28;20322;-85
2021/10/25 00:25:08;;;;;;;10.50;6.80;;;7.10;99.90;;;;;;5013576;28;20239;-85
2021/10/25 00:27:34;;;;;;;7.83;6.40;;;7.10;99.90;;;;;;5018290;28;20212;-85
2021/10/25 00:29:59;;;;;;;10.00;7.20;;;7.10;99.90;;;;;;5018662;28;20423;-85
2021/10/25 00:32:26;;;;;;;11.10;7.00;;;7.10;99.90;;;;;;5018608;28;20261;-85
2021/10/25 00:34:52;;;;;;;10.73;6.97;;;7.10;99.90;;;;;;5017476;28;20205;-85
2021/10/25 00:37:17;;;;;;;10.10;6.80;;;7.10;99.90;;;;;;5018463;28;20494;-85
2021/10/25 00:39:43;;;;;;;8.73;6.77;;;7.10;99.90;;;;;;5014736;28;20234;-85
2021/10/25 00:42:08;;;;;;;22.10;6.73;;;7.10;99.90;;;;;;5012374;28;20199;-84
2021/10/25 00:44:34;;;;;;;9.93;6.40;;;7.20;99.90;;;;;;5013610;28;20187;-84
2021/10/25 00:47:00;;;;;;;9.53;7.20;;;7.20;99.90;;;;;;5012010;28;20244;-85
2021/10/25 00:49:26;;;;;;;11.90;6.57;;;7.20;99.90;;;;;;5014188;28;20181;-84
2021/10/25 00:51:53;;;;;;;10.97;6.80;;;7.20;99.90;;;;;;5013007;28;20863;-83
2021/10/25 00:54:20;;;;;;;14.80;7.00;;;7.20;99.90;;;;;;5014069;28;20455;-84
2021/10/25 00:56:46;;;;;;;12.27;7.53;;;7.30;99.90;;;;;;5014473;28;20483;-85
2021/10/25 00:59:14;;;;;;;8.47;6.10;;;7.30;99.90;;;;;;5014272;28;20511;-84
2021/10/25 01:01:41;;;;;;;10.37;6.80;;;7.30;99.90;;;;;;5013608;28;20424;-85
2021/10/25 01:04:07;;;;;;;10.90;7.17;;;7.30;99.90;;;;;;5013003;28;20519;-84
2021/10/25 01:06:32;;;;;;;10.97;6.07;;;7.30;99.90;;;;;;5014202;28;20460;-84
2021/10/25 01:08:58;;;;;;;10.03;6.40;;;7.30;99.90;;;;;;5017257;28;20503;-85
2021/10/25 01:11:25;;;;;;;10.40;6.13;;;7.40;99.90;;;;;;5017496;28;20372;-86
2021/10/25 01:13:52;;;;;;;9.00;6.33;;;7.30;99.90;;;;;;5013632;28;20421;-85
2021/10/25 01:16:18;;;;;;;12.23;6.37;;;7.30;99.90;;;;;;5015298;28;20919;-85
2021/10/25 01:18:45;;;;;;;9.10;6.83;;;7.30;99.90;;;;;;5016907;28;20412;-84
2021/10/25 01:21:14;;;;;;;6.83;5.97;;;7.30;99.90;;;;;;5014400;28;20431;-84
2021/10/25 01:23:40;;;;;;;9.00;6.33;;;7.30;99.90;;;;;;5014017;28;20423;-84
2021/10/25 01:26:06;;;;;;;9.63;6.60;;;7.30;99.90;;;;;;5014451;28;20440;-84
2021/10/25 01:28:31;;;;;;;9.53;6.83;;;7.30;99.90;;;;;;5015782;28;20427;-84
2021/10/25 01:30:57;;;;;;;12.07;7.70;;;7.30;99.90;;;;;;5017988;28;20189;-84
2021/10/25 01:33:23;;;;;;;9.40;6.37;;;7.20;99.90;;;;;;5016785;28;20247;-84
2021/10/25 01:35:49;;;;;;;9.50;6.70;;;7.20;99.90;;;;;;5013059;28;20569;-84
2021/10/25 01:38:15;;;;;;;11.23;8.37;;;7.20;99.90;;;;;;5012333;28;20419;-84
2021/10/25 01:40:41;;;;;;;9.40;6.83;;;7.20;99.90;;;;;;5012477;28;20753;-85
2021/10/25 01:43:07;;;;;;;13.43;6.93;;;7.20;99.90;;;;;;5010848;28;20423;-85
2021/10/25 01:45:33;;;;;;;13.50;7.20;;;7.20;99.90;;;;;;5015950;28;20181;-84
2021/10/25 01:47:59;;;;;;;8.50;6.60;;;7.20;99.90;;;;;;5017356;28;20427;-84
2021/10/25 01:50:24;;;;;;;9.03;6.10;;;7.20;99.90;;;;;;5015282;28;20428;-84
2021/10/25 01:52:51;;;;;;;7.13;6.03;;;7.20;99.90;;;;;;5010635;28;20181;-84
2021/10/25 01:55:16;;;;;;;11.53;7.57;;;7.20;99.90;;;;;;5017063;28;20201;-84
2021/10/25 01:57:42;;;;;;;9.03;6.83;;;7.20;99.90;;;;;;5014434;28;20462;-84
2021/10/25 02:00:08;;;;;;;7.90;6.40;;;7.20;99.90;;;;;;5017291;28;20559;-83
2021/10/25 02:02:34;;;;;;;10.60;7.00;;;7.20;99.90;;;;;;5017290;28;20247;-83
2021/10/25 02:05:02;;;;;;;12.97;5.97;;;7.20;99.90;;;;;;5018454;28;20415;-84
2021/10/25 02:07:28;;;;;;;12.47;6.57;;;7.10;99.90;;;;;;5017089;28;20436;-84
2021/10/25 02:09:54;;;;;;;12.10;7.80;;;7.10;99.90;;;;;;5018340;28;20412;-84
2021/10/25 02:12:20;;;;;;;12.40;6.43;;;7.10;99.90;;;;;;5016750;28;20419;-85
2021/10/25 02:14:46;;;;;;;10.50;6.80;;;7.10;99.90;;;;;;5018402;28;20212;-86
2021/10/25 02:17:12;;;;;;;11.57;7.10;;;7.10;99.90;;;;;;5019949;28;20439;-85
2021/10/25 02:19:38;;;;;;;9.30;5.90;;;7.10;99.90;;;;;;5022332;28;20204;-84
2021/10/25 02:22:04;;;;;;;10.20;6.67;;;7.10;99.90;;;;;;5021913;28;20169;-86
2021/10/25 02:24:30;;;;;;;8.93;6.47;;;7.00;99.90;;;;;;5021365;28;21128;-85
2021/10/25 02:26:56;;;;;;;10.20;7.27;;;7.00;99.90;;;;;;5022380;28;20457;-84
2021/10/25 02:29:21;;;;;;;9.20;6.30;;;7.10;99.90;;;;;;5021203;28;20185;-85
2021/10/25 02:31:47;;;;;;;11.97;6.70;;;7.00;99.90;;;;;;5021252;28;20177;-84
2021/10/25 02:34:13;;;;;;;10.87;7.90;;;7.00;99.90;;;;;;5021802;28;20187;-83
2021/10/25 02:36:38;;;;;;;9.40;6.00;;;7.00;99.90;;;;;;5021500;28;20224;-85
2021/10/25 02:39:04;;;;;;;11.27;6.77;;;7.00;99.90;;;;;;5021355;28;20206;-84
2021/10/25 02:41:30;;;;;;;11.77;7.20;;;7.00;99.90;;;;;;5021268;28;20174;-84
2021/10/25 02:43:56;;;;;;;12.60;6.60;;;6.90;99.90;;;;;;5021443;28;20231;-84
2021/10/25 02:46:22;;;;;;;9.40;6.23;;;6.90;99.90;;;;;;5022204;28;20468;-85
2021/10/25 02:48:47;;;;;;;11.30;6.40;;;6.90;99.90;;;;;;5021986;28;20187;-84
2021/10/25 02:51:13;;;;;;;11.10;6.10;;;6.90;99.90;;;;;;5021430;28;20773;-84
2021/10/25 02:53:39;;;;;;;9.97;6.80;;;6.90;99.90;;;;;;5022109;28;20635;-85
2021/10/25 02:56:05;;;;;;;8.80;6.20;;;6.90;99.90;;;;;;5021119;28;20220;-84
2021/10/25 02:58:30;;;;;;;9.80;6.77;;;6.90;99.90;;;;;;5021151;28;20181;-85
2021/10/25 03:00:57;;;;;;;11.40;6.37;;;6.90;99.90;;;;;;5020133;28;20424;-84
2021/10/25 03:03:23;;;;;;;9.20;6.40;;;6.80;99.90;;;;;;5020829;28;20222;-86
2021/10/25 03:05:49;;;;;;;11.40;8.00;;;6.90;99.90;;;;;;5020862;28;20456;-85
2021/10/25 03:08:14;;;;;;;9.33;7.30;;;6.90;99.90;;;;;;5021630;28;20185;-84
2021/10/25 03:10:40;;;;;;;13.00;6.30;;;6.80;99.90;;;;;;5021861;28;20195;-85
2021/10/25 03:13:09;;;;;;;8.00;6.30;;;6.80;99.90;;;;;;5020533;28;20193;-85
2021/10/25 03:15:35;;;;;;;12.50;6.63;;;6.80;99.90;;;;;;5020940;28;20267;-85
2021/10/25 03:18:01;;;;;;;9.13;6.80;;;6.80;99.90;;;;;;5020679;28;20919;-84
2021/10/25 03:20:27;;;;;;;8.40;6.50;;;6.80;99.90;;;;;;5020649;28;20184;-84
2021/10/25 03:22:52;;;;;;;10.67;6.63;;;6.80;99.90;;;;;;5022356;28;20568;-84
2021/10/25 03:25:18;;;;;;;11.23;6.87;;;6.80;99.90;;;;;;5021306;28;20501;-85
2021/10/25 03:27:44;;;;;;;9.57;6.70;;;6.80;99.90;;;;;;5021008;28;20181;-84
2021/10/25 03:30:12;;;;;;;8.30;5.70;;;6.70;99.90;;;;;;5021594;28;20189;-84
2021/10/25 03:32:37;;;;;;;9.50;6.73;;;6.70;99.90;;;;;;5021459;28;20439;-84
2021/10/25 03:35:04;;;;;;;9.40;6.13;;;6.70;99.90;;;;;;5020732;28;20470;-85
2021/10/25 03:37:33;;;;;;;10.60;6.93;;;6.70;99.90;;;;;;5020627;28;20432;-84
2021/10/25 03:39:58;;;;;;;12.23;5.80;;;6.70;99.90;;;;;;5021129;28;20752;-84
2021/10/25 03:42:30;;;;;;;10.80;6.90;;;6.70;99.90;;;;;;5019965;28;20427;-85
2021/10/25 03:45:06;;;;;;;11.50;6.77;;;6.70;99.90;;;;;;5019859;28;20188;-84
2021/10/25 03:48:10;;;;;;;11.00;7.10;;;6.60;99.90;;;;;;5020911;28;20446;-84
2021/10/25 03:50:29;;;;;;;9.03;6.30;;;6.60;99.90;;;;;;5017913;28;20463;-84
2021/10/25 03:55:34;;;;;;;9.03;6.03;;;6.50;99.90;;;;;;5021426;28;20469;-84
2021/10/25 04:27:53;;;;;;;10.80;6.50;;;6.30;99.90;;;;;;5021641;28;20872;-84
2021/10/25 04:30:19;;;;;;;8.50;5.30;;;6.30;99.90;;;;;;5020116;28;20851;-83
2021/10/25 04:32:46;;;;;;;9.13;6.80;;;6.30;99.90;;;;;;5019840;28;20451;-85
2021/10/25 04:35:11;;;;;;;9.40;6.10;;;6.30;99.90;;;;;;5019868;28;20474;-85
2021/10/25 04:37:37;;;;;;;10.40;6.47;;;6.20;99.90;;;;;;5020476;28;20928;-84
2021/10/25 04:40:04;;;;;;;7.90;6.40;;;6.20;99.90;;;;;;5019441;28;20470;-84
2021/10/25 04:42:31;;;;;;;9.67;6.60;;;6.20;99.90;;;;;;5019026;28;20554;-85
2021/10/25 04:44:56;;;;;;;7.43;6.00;;;6.20;99.90;;;;;;5019122;28;20428;-85
2021/10/25 04:47:22;;;;;;;9.30;6.20;;;6.20;99.90;;;;;;5020075;28;20442;-85
2021/10/25 04:49:48;;;;;;;8.80;5.80;;;6.30;99.90;;;;;;5019607;28;20185;-84
2021/10/25 04:52:13;;;;;;;9.30;6.63;;;6.30;99.90;;;;;;5019678;28;20189;-85
2021/10/25 04:54:39;;;;;;;11.90;7.13;;;6.30;99.90;;;;;;5019220;28;20216;-85
2021/10/25 04:57:05;;;;;;;10.07;5.90;;;6.40;99.90;;;;;;5019930;28;20215;-84
2021/10/25 04:59:31;;;;;;;14.23;7.60;;;6.30;99.90;;;;;;5019330;28;20467;-85
2021/10/25 05:01:56;;;;;;;9.60;6.10;;;6.30;99.90;;;;;;5018614;28;20207;-87
2021/10/25 05:04:22;;;;;;;8.37;5.67;;;6.30;99.90;;;;;;5020036;28;20222;-84
2021/10/25 05:06:48;;;;;;;9.07;5.50;;;6.30;99.90;;;;;;5019788;28;20270;-85
2021/10/25 05:09:14;;;;;;;10.47;5.67;;;6.30;99.90;;;;;;5020334;28;20835;-86
2021/10/25 05:11:40;;;;;;;7.40;5.37;;;6.40;99.90;;;;;;5019424;28;20650;-86
2021/10/25 05:14:06;;;;;;;8.20;5.97;;;6.30;99.90;;;;;;5019735;28;20183;-86
2021/10/25 05:16:32;;;;;;;9.33;5.50;;;6.30;99.90;;;;;;5019642;28;20866;-87
2021/10/25 05:18:58;;;;;;;12.30;5.90;;;6.30;99.90;;;;;;5018949;28;20470;-85
2021/10/25 05:21:23;;;;;;;11.07;6.17;;;6.20;99.90;;;;;;5013017;28;20204;-84
2021/10/25 05:23:49;;;;;;;7.00;4.77;;;6.20;99.90;;;;;;5016471;28;20187;-86
2021/10/25 05:26:15;;;;;;;7.70;5.83;;;6.20;99.90;;;;;;5014930;28;20201;-85
2021/10/25 05:28:41;;;;;;;9.63;5.53;;;6.20;99.90;;;;;;5013445;28;20423;-86
2021/10/25 05:31:10;;;;;;;8.47;5.23;;;6.10;99.90;;;;;;5018888;28;20206;-85
2021/10/25 05:33:37;;;;;;;7.77;5.63;;;6.00;99.90;;;;;;5013315;28;20439;-85
2021/10/25 05:36:04;;;;;;;10.40;6.90;;;6.00;99.90;;;;;;5015374;28;20475;-84
2021/10/25 05:38:29;;;;;;;7.47;5.93;;;6.00;99.90;;;;;;5017249;28;20441;-86
2021/10/25 05:40:55;;;;;;;6.80;4.70;;;5.90;99.90;;;;;;5017951;28;20428;-85
2021/10/25 05:43:21;;;;;;;8.20;6.00;;;5.90;99.90;;;;;;5016582;28;20184;-85
2021/10/25 05:45:47;;;;;;;8.33;5.77;;;5.90;99.90;;;;;;5018862;28;20626;-84
2021/10/25 05:48:12;;;;;;;8.00;6.17;;;5.90;99.90;;;;;;5017172;28;20438;-84
2021/10/25 05:50:38;;;;;;;7.80;5.40;;;5.90;99.90;;;;;;5018943;28;20176;-85
2021/10/25 05:53:04;;;;;;;8.10;5.50;;;5.90;99.90;;;;;;5023277;28;20176;-85
2021/10/25 05:55:31;;;;;;;11.20;5.40;;;5.90;99.90;;;;;;5021600;28;20198;-85
2021/10/25 05:57:57;;;;;;;7.93;5.57;;;5.90;99.90;;;;;;5021856;28;20917;-84
2021/10/25 06:00:27;;;;;;;8.07;4.93;;;6.00;99.90;;;;;;5019429;28;20417;-85
2021/10/25 06:02:54;;;;;;;10.77;6.80;;;6.00;99.90;;;;;;5020349;28;20922;-85
2021/10/25 06:05:22;;;;;;;8.53;6.30;;;6.00;99.90;;;;;;5015304;28;20476;-86
2021/10/25 06:07:48;;;;;;;10.50;6.27;;;6.00;99.90;;;;;;5015502;28;20795;-85
2021/10/25 06:10:15;;;;;;;10.63;6.40;;;6.00;99.90;;;;;;5014969;28;20493;-85
2021/10/25 06:12:44;;;;;;;7.07;5.83;;;6.10;99.90;;;;;;5016991;28;20422;-84
2021/10/25 06:15:16;;;;;;;8.50;5.80;;;6.10;99.90;;;;;;5015279;28;20963;-85
2021/10/25 06:17:51;;;;;;;11.70;6.60;;;6.10;99.90;;;;;;5016627;28;20475;-85
2021/10/25 06:20:19;;;;;;;8.37;5.77;;;6.10;99.90;;;;;;5015111;28;20415;-84
2021/10/25 06:22:44;;;;;;;7.70;5.37;;;6.10;99.90;;;;;;5015031;28;20423;-85
2021/10/25 06:25:13;;;;;;;10.50;6.47;;;6.10;99.90;;;;;;5017078;28;20425;-84
2021/10/25 06:27:39;;;;;;;9.30;6.37;;;6.10;99.90;;;;;;5017754;28;20211;-86
2021/10/25 06:30:06;;;;;;;7.83;5.50;;;6.10;99.90;;;;;;5017350;28;20472;-84
2021/10/25 06:32:32;;;;;;;9.90;6.77;;;6.10;99.90;;;;;;5014866;28;20439;-84
2021/10/25 06:35:00;;;;;;;11.47;8.50;;;6.10;99.90;;;;;;5016839;28;20451;-84
2021/10/25 06:37:32;;;;;;;7.87;5.30;;;6.20;99.90;;;;;;5016513;28;20688;-85
2021/10/25 06:39:58;;;;;;;8.50;6.40;;;6.20;99.90;;;;;;5016025;28;20411;-85
2021/10/25 06:42:25;;;;;;;8.00;5.27;;;6.20;99.90;;;;;;5015960;28;20411;-85
2021/10/25 06:44:59;;;;;;;13.00;7.50;;;6.20;99.90;;;;;;5018477;28;20503;-85
2021/10/25 06:47:25;;;;;;;8.83;5.20;;;6.20;99.90;;;;;;5018039;28;20541;-84
2021/10/25 06:49:51;;;;;;;9.43;6.77;;;6.20;99.90;;;;;;5015169;28;20411;-84
2021/10/25 06:52:16;;;;;;;10.50;7.40;;;6.20;99.90;;;;;;5014799;28;20195;-85
2021/10/25 06:54:42;;;;;;;11.60;6.50;;;6.30;99.90;;;;;;5016553;28;20463;-84
2021/10/25 06:57:08;;;;;;;9.90;6.30;;;6.30;99.90;;;;;;5018415;28;20251;-85
2021/10/25 06:59:33;;;;;;;9.50;6.67;;;6.40;99.90;;;;;;5018631;28;20180;-84
2021/10/25 07:01:59;;;;;;;11.23;8.17;;;6.40;99.90;;;;;;5015099;28;20655;-84
2021/10/25 07:04:25;;;;;;;8.93;7.33;;;6.40;99.90;;;;;;5016237;28;20271;-85
2021/10/25 07:06:52;;;;;;;8.17;6.43;;;6.40;99.90;;;;;;5015394;28;20206;-85
2021/10/25 07:09:19;;;;;;;9.23;7.10;;;6.50;99.90;;;;;;5014657;28;20177;-85
2021/10/25 07:11:45;;;;;;;9.03;6.77;;;6.50;99.90;;;;;;5018153;28;21076;-84
2021/10/25 07:14:13;;;;;;;11.53;7.60;;;6.50;99.90;;;;;;5015706;28;20846;-84
2021/10/25 08:00:39;;;;;;;10.40;6.87;;;7.80;99.90;;;;;;5014935;28;20439;-83
2021/10/25 08:08:44;;;;;;;13.93;8.23;;;8.10;99.90;;;;;;5014066;28;20466;-83
2021/10/25 08:11:10;;;;;;;11.80;7.60;;;8.10;99.90;;;;;;5012233;28;20428;-83
2021/10/25 08:13:41;;;;;;;10.80;6.77;;;8.30;99.90;;;;;;5011337;28;20452;-83
2021/10/25 08:21:09;;;;;;;10.47;6.63;;;8.50;99.90;;;;;;5013517;28;20416;-84
2021/10/25 08:23:35;;;;;;;8.53;6.63;;;8.60;99.90;;;;;;5011604;28;20191;-83
2021/10/25 08:26:01;;;;;;;8.13;6.07;;;8.70;99.90;;;;;;5013192;28;20523;-84
2021/10/25 08:28:26;;;;;;;12.00;6.67;;;8.80;99.90;;;;;;5012038;28;20246;-84
2021/10/25 08:30:52;;;;;;;10.10;6.20;;;8.90;99.90;;;;;;5011917;28;20190;-83
2021/10/25 08:36:13;;;;;;;8.90;6.30;;;9.10;99.90;;;;;;5012927;28;20212;-84
2021/10/25 08:41:25;;;;;;;9.10;5.30;;;9.40;99.90;;;;;;5013102;28;20455;-83
2021/10/25 08:43:53;;;;;;;12.33;7.07;;;9.50;99.90;;;;;;5012753;28;20434;-84
2021/10/25 08:46:20;;;;;;;9.60;5.93;;;9.70;99.90;;;;;;5012691;28;20532;-84
2021/10/25 08:48:47;;;;;;;8.40;5.80;;;9.70;99.90;;;;;;5011553;28;20952;-83
2021/10/25 08:51:15;;;;;;;12.10;7.13;;;9.80;99.90;;;;;;5012810;28;20495;-84
2021/10/25 08:53:41;;;;;;;8.80;6.50;;;9.80;99.90;;;;;;5012699;28;20416;-84
2021/10/25 08:56:07;;;;;;;12.03;5.80;;;10.00;99.90;;;;;;5011179;28;20534;-84
2021/10/25 08:58:36;;;;;;;9.17;6.37;;;10.10;99.90;;;;;;5012717;28;20420;-84
2021/10/25 09:01:03;;;;;;;9.33;6.00;;;10.20;99.90;;;;;;5012712;28;20644;-84
2021/10/25 09:03:29;;;;;;;7.60;5.23;;;10.20;99.90;;;;;;5011138;28;20851;-83
2021/10/25 09:05:57;;;;;;;7.70;5.70;;;10.30;99.90;;;;;;5012910;28;20522;-84
2021/10/25 09:08:23;;;;;;;9.23;6.37;;;10.50;99.90;;;;;;5013304;28;20600;-84
2021/10/25 09:10:49;;;;;;;8.10;4.87;;;10.60;99.90;;;;;;5011306;28;20432;-84
2021/10/25 09:13:18;;;;;;;7.67;5.90;;;10.70;99.90;;;;;;5010851;28;20489;-84
2021/10/25 09:15:57;;;;;;;8.00;5.90;;;10.70;99.90;;;;;;5011005;28;20696;-83
2021/10/25 09:18:28;;;;;;;13.10;6.80;;;10.90;99.90;;;;;;5011119;28;20477;-83
2021/10/25 09:20:56;;;;;;;7.83;5.83;;;11.00;99.90;;;;;;5012587;28;20769;-83
2021/10/25 09:23:31;;;;;;;7.37;6.00;;;11.00;99.90;;;;;;5010723;28;20428;-84
2021/10/25 09:26:07;;;;;;;9.83;6.20;;;11.10;99.90;;;;;;5012989;28;20484;-84
2021/10/25 09:28:40;;;;;;;8.63;5.10;;;11.20;99.90;;;;;;5015177;28;20532;-83
2021/10/25 09:31:12;;;;;;;11.33;5.47;;;11.30;99.90;;;;;;5015273;28;20416;-84
2021/10/25 09:33:40;;;;;;;9.33;6.50;;;11.40;99.90;;;;;;5014741;28;20419;-84
2021/10/25 09:36:13;;;;;;;9.67;5.20;;;11.50;99.90;;;;;;5016244;28;20460;-84
2021/10/25 09:50:05;;;;;;;7.53;4.97;;;12.30;99.90;;;;;;5016319;28;20507;-84
2021/10/25 09:52:39;;;;;;;8.00;5.50;;;12.40;99.90;;;;;;5014587;28;20420;-83
2021/10/25 09:55:12;;;;;;;6.27;4.30;;;12.50;99.90;;;;;;5014630;28;20463;-84
2021/10/25 09:57:43;;;;;;;7.53;4.93;;;12.60;99.90;;;;;;5014745;28;20495;-84
2021/10/25 10:00:10;;;;;;;6.00;4.30;;;12.80;99.90;;;;;;5015807;28;20416;-84
2021/10/25 10:02:37;;;;;;;7.30;4.90;;;12.90;99.90;;;;;;5014388;28;20454;-84
2021/10/25 10:05:06;;;;;;;6.90;5.10;;;13.10;99.90;;;;;;5014471;28;20522;-84
2021/10/25 10:07:35;;;;;;;5.07;4.20;;;13.30;99.90;;;;;;5014297;28;20834;-84
2021/10/25 10:10:01;;;;;;;10.27;5.47;;;13.40;99.90;;;;;;5014594;28;20454;-84
2021/10/25 10:12:28;;;;;;;6.13;5.03;;;13.60;99.90;;;;;;5014114;28;20428;-84
2021/10/25 10:14:56;;;;;;;7.50;4.40;;;13.70;99.90;;;;;;5015388;28;20456;-84
2021/10/25 10:17:34;;;;;;;5.77;4.17;;;13.90;99.90;;;;;;5014179;28;20995;-84
2021/10/25 10:20:12;;;;;;;6.67;4.57;;;14.10;99.90;;;;;;5014248;28;20423;-84
2021/10/25 10:22:48;;;;;;;8.27;4.10;;;14.30;99.90;;;;;;5015428;28;20415;-84
2021/10/25 10:25:30;;;;;;;7.00;4.80;;;14.60;99.90;;;;;;5016001;28;20479;-84
2021/10/25 10:28:01;;;;;;;8.47;4.70;;;14.80;99.90;;;;;;5014653;28;20495;-85
2021/10/25 10:30:28;;;;;;;6.07;3.93;;;15.10;99.90;;;;;;5014469;28;20427;-84
2021/10/25 10:32:59;;;;;;;7.80;4.70;;;15.40;99.90;;;;;;5013762;28;20443;-84
2021/10/25 10:35:25;;;;;;;5.93;4.30;;;15.40;99.90;;;;;;5013836;28;20468;-84
2021/10/25 10:38:00;;;;;;;8.30;3.93;;;15.70;99.90;;;;;;5013914;28;20788;-84
2021/10/25 10:40:37;;;;;;;7.00;4.23;;;16.20;99.90;;;;;;5014507;28;20426;-85
2021/10/25 10:43:03;;;;;;;7.87;3.67;;;16.90;99.90;;;;;;5013376;28;20418;-84
2021/10/25 10:45:28;;;;;;;5.10;3.60;;;17.40;99.90;;;;;;5013578;28;20424;-85
2021/10/25 10:47:59;;;;;;;9.40;4.03;;;18.10;99.90;;;;;;5013686;28;20184;-85
2021/10/25 10:50:46;;;;;;;7.50;3.43;;;19.20;99.90;;;;;;5014729;28;20176;-85
2021/10/25 10:53:59;;;;;;;5.67;3.70;;;20.30;99.90;;;;;;5013236;28;20431;-85
2021/10/25 10:56:03;;;;;;;5.60;4.00;;;21.20;99.90;;;;;;5006638;28;20956;-85
2021/10/25 10:58:48;;;;;;;6.53;4.03;;;22.80;99.90;;;;;;5013478;28;20420;-85
2021/10/25 11:01:13;;;;;;;5.07;3.40;;;24.90;99.90;;;;;;5013380;28;20443;-84
2021/10/25 11:03:40;;;;;;;6.57;3.70;;;26.10;95.20;;;;;;5012939;28;20420;-84
2021/10/25 11:06:10;;;;;;;5.60;3.30;;;26.20;92.90;;;;;;5013166;28;20288;-84
2021/10/25 11:08:50;;;;;;;4.23;3.20;;;26.80;91.80;;;;;;5013233;28;20426;-84
2021/10/25 11:11:19;;;;;;;7.23;3.43;;;26.10;86.30;;;;;;5013013;28;20924;-84
2021/10/25 11:13:59;;;;;;;7.23;3.70;;;25.30;89.30;;;;;;5013289;28;20424;-84
2021/10/25 11:18:59;;;;;;;4.73;3.40;;;25.40;88.70;;;;;;5015107;28;20495;-85
2021/10/25 11:21:35;;;;;;;5.40;3.47;;;25.30;86.30;;;;;;5014331;28;20424;-84
2021/10/25 11:24:08;;;;;;;5.60;4.00;;;24.90;87.10;;;;;;5013950;28;20412;-84
2021/10/25 11:26:39;;;;;;;7.57;3.50;;;24.70;89.80;;;;;;5013874;28;20750;-84
2021/10/25 11:29:11;;;;;;;7.10;4.10;;;24.30;90.90;;;;;;5014052;28;20424;-84
2021/10/25 11:31:47;;;;;;;6.77;3.50;;;23.90;91.70;;;;;;5013848;28;20424;-84
2021/10/25 11:34:21;;;;;;;6.40;3.30;;;23.60;92.60;;;;;;5013190;28;20764;-85
2021/10/25 11:37:03;;;;;;;6.00;3.30;;;23.20;92.30;;;;;;5012580;28;20447;-85
2021/10/25 11:39:39;;;;;;;5.00;3.60;;;22.90;93.50;;;;;;5012687;28;20447;-84
2021/10/25 11:42:12;;;;;;;5.03;3.20;;;22.70;94.20;;;;;;5012267;28;20407;-86
2021/10/25 11:44:44;;;;;;;6.70;3.53;;;22.80;95.00;;;;;;5012337;28;20430;-85
2021/10/25 11:47:31;;;;;;;4.03;2.90;;;22.70;95.10;;;;;;5012395;28;20447;-85
2021/10/25 11:50:08;;;;;;;5.37;3.20;;;22.40;94.40;;;;;;5013000;28;20434;-85
2021/10/25 11:52:48;;;;;;;6.50;3.30;;;22.20;96.40;;;;;;5012756;28;20911;-85
2021/10/25 11:55:23;;;;;;;8.10;3.23;;;22.00;98.10;;;;;;5015656;28;20479;-85
2021/10/25 11:58:20;;;;;;;4.67;3.00;;;21.80;99.30;;;;;;5013289;28;20430;-85
2021/10/25 12:00:51;;;;;;;3.93;2.90;;;21.50;99.70;;;;;;5010092;28;20415;-84
2021/10/25 12:03:20;;;;;;;4.67;3.20;;;21.20;99.90;;;;;;5012481;28;20495;-84
2021/10/25 12:05:46;;;;;;;5.60;3.33;;;21.10;99.90;;;;;;5012169;28;20471;-84
2021/10/25 12:08:13;;;;;;;5.97;3.20;;;21.10;99.90;;;;;;5013807;28;20448;-84
2021/10/25 12:10:41;;;;;;;6.40;4.00;;;21.10;99.90;;;;;;5012220;28;20427;-84
2021/10/25 12:13:08;;;;;;;5.80;3.67;;;21.40;99.90;;;;;;5012836;28;20426;-84
2021/10/25 12:15:36;;;;;;;6.60;4.30;;;21.60;99.90;;;;;;5009169;28;20538;-82
2021/10/25 12:18:05;;;;;;;5.70;3.77;;;21.90;99.90;;;;;;5007140;28;21085;-84
2021/10/25 12:20:34;;;;;;;5.00;3.50;;;21.80;99.90;;;;;;5003963;28;20432;-83
2021/10/25 12:23:07;;;;;;;5.10;3.53;;;21.50;99.90;;;;;;5011886;28;20436;-83
2021/10/25 12:25:34;;;;;;;7.27;3.57;;;21.20;99.90;;;;;;5005022;28;20494;-84
2021/10/25 12:28:10;;;;;;;6.00;3.93;;;20.90;99.90;;;;;;5011345;28;20498;-85
2021/10/25 12:30:37;;;;;;;6.40;3.80;;;20.70;99.90;;;;;;5004800;28;20489;-84
2021/10/25 12:33:03;;;;;;;5.80;3.30;;;20.70;99.90;;;;;;5012627;28;20424;-85
2021/10/25 12:35:42;;;;;;;5.10;3.13;;;20.50;99.90;;;;;;5013330;28;20948;-84
2021/10/25 12:38:17;;;;;;;6.03;3.70;;;20.50;99.90;;;;;;5013188;28;20561;-86
2021/10/25 12:40:42;;;;;;;4.63;3.40;;;20.60;99.90;;;;;;5013605;28;20400;-84
2021/10/25 12:43:09;;;;;;;4.60;3.07;;;20.80;99.90;;;;;;5009129;28;20494;-83
2021/10/25 12:45:43;;;;;;;4.40;3.10;;;20.90;99.90;;;;;;5006867;28;20197;-83
2021/10/25 12:48:17;;;;;;;5.30;3.20;;;20.80;99.90;;;;;;5011959;28;20461;-84
2021/10/25 12:50:50;;;;;;;6.37;3.50;;;20.50;99.90;;;;;;4992688;28;20936;-83
2021/10/25 12:53:16;;;;;;;3.77;3.20;;;20.30;99.90;;;;;;4992622;28;20801;-84
2021/10/25 12:55:52;;;;;;;4.53;3.20;;;20.10;99.90;;;;;;4991999;28;20910;-84
2021/10/25 12:58:20;;;;;;;6.57;3.70;;;19.90;99.90;;;;;;4992407;28;20966;-83
2021/10/25 13:00:46;;;;;;;5.93;3.80;;;19.40;99.90;;;;;;4994188;28;20420;-82
2021/10/25 13:03:12;;;;;;;6.20;3.30;;;19.20;99.90;;;;;;4994250;28;20417;-81
2021/10/25 13:05:39;;;;;;;4.70;3.30;;;19.00;99.90;;;;;;4992624;28;20576;-82
2021/10/25 13:08:08;;;;;;;5.10;3.23;;;18.90;99.90;;;;;;4992500;28;20425;-83
2021/10/25 13:10:36;;;;;;;6.43;3.20;;;18.80;99.90;;;;;;4993670;28;20498;-83
2021/10/25 13:13:04;;;;;;;5.30;2.53;;;18.70;99.90;;;;;;4991806;28;20468;-83
2021/10/25 13:15:31;;;;;;;6.63;3.07;;;18.40;99.90;;;;;;4991345;28;20584;-84
2021/10/25 13:17:59;;;;;;;3.63;2.20;;;18.20;99.90;;;;;;5000592;28;20431;-81
2021/10/25 13:20:27;;;;;;;3.90;2.63;;;18.10;99.90;;;;;;5013496;28;20430;-83
2021/10/25 13:22:55;;;;;;;3.43;1.93;;;18.00;99.90;;;;;;5011195;28;20424;-83
2021/10/25 13:25:23;;;;;;;3.67;2.27;;;17.90;99.90;;;;;;5011662;28;20513;-83
2021/10/25 13:27:50;;;;;;;3.57;2.37;;;18.00;99.90;;;;;;5011267;28;20424;-83
2021/10/25 13:30:18;;;;;;;3.90;2.20;;;18.00;99.90;;;;;;5011670;28;20419;-84
2021/10/25 13:32:44;;;;;;;3.70;2.17;;;17.90;99.90;;;;;;5011146;28;20467;-83
2021/10/25 13:35:11;;;;;;;3.23;2.43;;;17.80;99.90;;;;;;5011211;28;20463;-83
2021/10/25 13:37:37;;;;;;;4.50;2.20;;;17.90;99.90;;;;;;5011842;28;20482;-83
2021/10/25 13:40:04;;;;;;;3.93;2.03;;;17.80;99.90;;;;;;5010871;28;20432;-83
2021/10/25 13:42:30;;;;;;;6.00;2.70;;;17.80;99.90;;;;;;5010561;28;20842;-83
2021/10/25 13:44:56;;;;;;;3.30;2.10;;;17.80;99.90;;;;;;5002798;28;20445;-84
2021/10/25 13:47:22;;;;;;;4.53;2.30;;;17.80;99.90;;;;;;5009672;28;20451;-82
2021/10/25 13:49:48;;;;;;;3.53;2.13;;;17.70;99.90;;;;;;5002595;28;20636;-82
2021/10/25 13:52:15;;;;;;;4.80;2.50;;;17.70;99.90;;;;;;5010061;28;20193;-83
2021/10/25 13:54:41;;;;;;;4.37;2.20;;;17.80;99.90;;;;;;5010346;28;21006;-81
2021/10/25 13:57:08;;;;;;;3.73;2.17;;;17.80;99.90;;;;;;5002758;28;20480;-81
2021/10/25 13:59:38;;;;;;;4.17;2.43;;;17.80;99.90;;;;;;5030088;23;20590;-80
2021/10/25 14:02:07;;;;;;;4.00;2.80;;;17.90;99.90;;;;;;5023382;28;20424;-80
2021/10/25 14:04:39;;;;;;;5.00;2.47;;;18.00;99.90;;;;;;5025774;28;20443;-80
2021/10/25 14:07:08;;;;;;;3.33;2.07;;;17.80;99.90;;;;;;5018764;28;20482;-80
2021/10/25 14:09:35;;;;;;;3.90;2.53;;;17.70;99.90;;;;;;5018532;28;20792;-80
2021/10/25 14:12:02;;;;;;;4.87;2.33;;;17.70;99.90;;;;;;5019043;28;20426;-80
2021/10/25 14:14:29;;;;;;;4.73;2.10;;;17.60;99.90;;;;;;5022227;28;20470;-80
2021/10/25 14:16:55;;;;;;;7.50;2.37;;;17.60;99.90;;;;;;5020359;28;20439;-80
2021/10/25 14:19:27;;;;;;;3.33;2.13;;;17.60;99.90;;;;;;5019403;28;20476;-80
2021/10/25 14:21:54;;;;;;;5.17;2.20;;;17.70;99.90;;;;;;5019850;28;20185;-80
2021/10/25 14:24:21;;;;;;;4.60;2.40;;;17.70;99.90;;;;;;5019765;28;20416;-80
2021/10/25 14:26:48;;;;;;;4.57;2.33;;;17.80;99.90;;;;;;5021018;28;21049;-80
2021/10/25 14:29:15;;;;;;;9.13;3.20;;;17.90;99.90;;;;;;5019997;28;20428;-80
2021/10/25 14:31:45;;;;;;;4.10;2.63;;;17.90;99.90;;;;;;5020502;28;20463;-80
2021/10/25 14:34:13;;;;;;;6.63;2.63;;;18.00;99.90;;;;;;5020779;28;20518;-80
2021/10/25 14:36:42;;;;;;;6.67;2.50;;;17.90;99.90;;;;;;5020943;28;20466;-80
2021/10/25 14:39:18;;;;;;;5.17;2.60;;;17.80;99.90;;;;;;5021553;28;20511;-80
2021/10/25 14:44:32;;;;;;;4.80;2.40;;;17.50;99.90;;;;;;5020092;28;20412;-80